sensor_id;sensor_type;location;lat;lon;timestamp;P1;durP1;ratioP1;P2;durP2;ratioP2
23228;SDS011;11783;50.350;6.576;2023-08-20T00:02:14;10.38;;;6.00;;
23228;SDS011;11783;50.350;6.576;2023-08-20T00:04:44;10.88;;;6.30;;
23228;SDS011;11783;50.350;6.576;2023-08-20T00:07:11;10.32;;;5.80;;
23228;SDS011;11783;50.350;6.576;2023-08-20T00:09:37;9.93;;;5.90;;
23228;SDS011;11783;50.350;6.576;2023-08-20T00:12:02;9.02;;;5.55;;
23228;SDS011;11783;50.350;6.576;2023-08-20T00:17:32;10.07;;;5.80;;
23228;SDS011;11783;50.350;6.576;2023-08-20T00:19:58;9.10;;;5.30;;
23228;SDS011;11783;50.350;6.576;2023-08-20T00:22:24;10.60;;;5.93;;
23228;SDS011;11783;50.350;6.576;2023-08-20T00:24:50;11.00;;;6.00;;
23228;SDS011;11783;50.350;6.576;2023-08-20T00:27:19;10.43;;;5.30;;
23228;SDS011;11783;50.350;6.576;2023-08-20T00:29:45;10.65;;;5.05;;
23228;SDS011;11783;50.350;6.576;2023-08-20T00:32:10;11.25;;;5.47;;
23228;SDS011;11783;50.350;6.576;2023-08-20T00:34:36;7.53;;;4.63;;
23228;SDS011;11783;50.350;6.576;2023-08-20T00:37:01;10.18;;;5.15;;
23228;SDS011;11783;50.350;6.576;2023-08-20T00:39:28;8.27;;;4.90;;
23228;SDS011;11783;50.350;6.576;2023-08-20T00:41:54;7.30;;;4.78;;
23228;SDS011;11783;50.350;6.576;2023-08-20T00:44:19;9.00;;;5.07;;
23228;SDS011;11783;50.350;6.576;2023-08-20T00:46:45;7.57;;;5.30;;
23228;SDS011;11783;50.350;6.576;2023-08-20T00:49:10;8.20;;;4.65;;
23228;SDS011;11783;50.350;6.576;2023-08-20T00:51:36;9.25;;;5.72;;
23228;SDS011;11783;50.350;6.576;2023-08-20T00:54:02;11.00;;;5.72;;
23228;SDS011;11783;50.350;6.576;2023-08-20T00:56:28;12.10;;;5.72;;
23228;SDS011;11783;50.350;6.576;2023-08-20T00:58:54;10.43;;;6.03;;
23228;SDS011;11783;50.350;6.576;2023-08-20T01:01:20;11.90;;;6.07;;
23228;SDS011;11783;50.350;6.576;2023-08-20T01:03:47;10.45;;;6.38;;
23228;SDS011;11783;50.350;6.576;2023-08-20T01:06:16;9.80;;;5.82;;
23228;SDS011;11783;50.350;6.576;2023-08-20T01:08:44;9.68;;;5.95;;
23228;SDS011;11783;50.350;6.576;2023-08-20T01:11:21;11.05;;;5.45;;
23228;SDS011;11783;50.350;6.576;2023-08-20T01:13:54;12.10;;;6.20;;
23228;SDS011;11783;50.350;6.576;2023-08-20T01:16:20;7.97;;;5.15;;
23228;SDS011;11783;50.350;6.576;2023-08-20T01:18:45;7.90;;;5.53;;
23228;SDS011;11783;50.350;6.576;2023-08-20T01:21:15;8.75;;;5.70;;
23228;SDS011;11783;50.350;6.576;2023-08-20T01:29:14;10.52;;;5.35;;
23228;SDS011;11783;50.350;6.576;2023-08-20T01:31:39;9.30;;;5.32;;
23228;SDS011;11783;50.350;6.576;2023-08-20T01:34:05;11.30;;;5.13;;
23228;SDS011;11783;50.350;6.576;2023-08-20T01:36:31;9.90;;;4.72;;
23228;SDS011;11783;50.350;6.576;2023-08-20T01:38:56;8.98;;;4.93;;
23228;SDS011;11783;50.350;6.576;2023-08-20T01:41:21;9.73;;;4.90;;
23228;SDS011;11783;50.350;6.576;2023-08-20T01:43:47;11.40;;;5.32;;
23228;SDS011;11783;50.350;6.576;2023-08-20T01:46:12;8.88;;;5.50;;
23228;SDS011;11783;50.350;6.576;2023-08-20T01:48:38;8.05;;;4.93;;
23228;SDS011;11783;50.350;6.576;2023-08-20T01:51:03;12.07;;;5.43;;
23228;SDS011;11783;50.350;6.576;2023-08-20T01:53:28;11.57;;;5.60;;
23228;SDS011;11783;50.350;6.576;2023-08-20T01:55:53;7.78;;;5.57;;
23228;SDS011;11783;50.350;6.576;2023-08-20T01:58:19;8.82;;;5.25;;
23228;SDS011;11783;50.350;6.576;2023-08-20T02:00:45;8.80;;;5.05;;
23228;SDS011;11783;50.350;6.576;2023-08-20T02:03:10;8.75;;;5.20;;
23228;SDS011;11783;50.350;6.576;2023-08-20T02:05:35;14.02;;;5.57;;
23228;SDS011;11783;50.350;6.576;2023-08-20T02:08:01;7.53;;;4.90;;
23228;SDS011;11783;50.350;6.576;2023-08-20T02:10:27;8.20;;;5.43;;
23228;SDS011;11783;50.350;6.576;2023-08-20T02:12:52;11.73;;;5.47;;
23228;SDS011;11783;50.350;6.576;2023-08-20T02:15:17;8.35;;;4.40;;
23228;SDS011;11783;50.350;6.576;2023-08-20T02:17:43;9.48;;;5.80;;
23228;SDS011;11783;50.350;6.576;2023-08-20T02:20:08;8.55;;;5.00;;
23228;SDS011;11783;50.350;6.576;2023-08-20T02:22:35;10.90;;;5.53;;
23228;SDS011;11783;50.350;6.576;2023-08-20T02:25:01;10.43;;;4.95;;
23228;SDS011;11783;50.350;6.576;2023-08-20T02:27:26;8.38;;;5.07;;
23228;SDS011;11783;50.350;6.576;2023-08-20T02:29:52;8.27;;;4.82;;
23228;SDS011;11783;50.350;6.576;2023-08-20T02:32:17;7.40;;;5.30;;
23228;SDS011;11783;50.350;6.576;2023-08-20T02:34:43;7.20;;;4.55;;
23228;SDS011;11783;50.350;6.576;2023-08-20T02:37:08;6.32;;;4.53;;
23228;SDS011;11783;50.350;6.576;2023-08-20T02:39:34;7.93;;;4.45;;
23228;SDS011;11783;50.350;6.576;2023-08-20T02:41:59;7.63;;;4.72;;
23228;SDS011;11783;50.350;6.576;2023-08-20T02:44:24;9.82;;;5.15;;
23228;SDS011;11783;50.350;6.576;2023-08-20T02:46:50;7.43;;;4.78;;
23228;SDS011;11783;50.350;6.576;2023-08-20T02:49:15;10.02;;;4.85;;
23228;SDS011;11783;50.350;6.576;2023-08-20T02:51:42;8.05;;;4.68;;
23228;SDS011;11783;50.350;6.576;2023-08-20T02:54:08;8.82;;;5.20;;
23228;SDS011;11783;50.350;6.576;2023-08-20T02:56:33;9.63;;;5.10;;
23228;SDS011;11783;50.350;6.576;2023-08-20T02:58:58;9.40;;;5.28;;
23228;SDS011;11783;50.350;6.576;2023-08-20T03:01:25;10.65;;;5.55;;
23228;SDS011;11783;50.350;6.576;2023-08-20T03:03:51;10.05;;;5.20;;
23228;SDS011;11783;50.350;6.576;2023-08-20T03:06:16;7.00;;;5.22;;
23228;SDS011;11783;50.350;6.576;2023-08-20T03:08:42;8.45;;;5.05;;
23228;SDS011;11783;50.350;6.576;2023-08-20T03:11:07;6.93;;;4.60;;
23228;SDS011;11783;50.350;6.576;2023-08-20T03:13:33;8.93;;;4.65;;
23228;SDS011;11783;50.350;6.576;2023-08-20T03:15:58;7.53;;;4.80;;
23228;SDS011;11783;50.350;6.576;2023-08-20T03:18:23;9.13;;;5.45;;
23228;SDS011;11783;50.350;6.576;2023-08-20T03:20:49;9.93;;;5.38;;
23228;SDS011;11783;50.350;6.576;2023-08-20T03:23:14;11.60;;;4.82;;
23228;SDS011;11783;50.350;6.576;2023-08-20T03:25:39;9.43;;;5.07;;
23228;SDS011;11783;50.350;6.576;2023-08-20T03:28:05;9.88;;;4.78;;
23228;SDS011;11783;50.350;6.576;2023-08-20T03:30:30;8.50;;;4.35;;
23228;SDS011;11783;50.350;6.576;2023-08-20T03:32:56;7.20;;;4.65;;
23228;SDS011;11783;50.350;6.576;2023-08-20T03:35:22;8.25;;;4.57;;
23228;SDS011;11783;50.350;6.576;2023-08-20T03:37:47;8.48;;;4.53;;
23228;SDS011;11783;50.350;6.576;2023-08-20T03:40:12;7.40;;;4.40;;
23228;SDS011;11783;50.350;6.576;2023-08-20T03:42:38;10.27;;;4.72;;
23228;SDS011;11783;50.350;6.576;2023-08-20T03:45:04;6.53;;;4.50;;
23228;SDS011;11783;50.350;6.576;2023-08-20T03:47:29;8.45;;;4.55;;
23228;SDS011;11783;50.350;6.576;2023-08-20T03:49:55;7.65;;;4.75;;
23228;SDS011;11783;50.350;6.576;2023-08-20T03:52:20;9.68;;;4.90;;
23228;SDS011;11783;50.350;6.576;2023-08-20T03:54:45;7.80;;;4.70;;
23228;SDS011;11783;50.350;6.576;2023-08-20T03:57:11;6.80;;;4.55;;
23228;SDS011;11783;50.350;6.576;2023-08-20T03:59:36;7.82;;;4.50;;
23228;SDS011;11783;50.350;6.576;2023-08-20T04:02:01;7.72;;;4.20;;
23228;SDS011;11783;50.350;6.576;2023-08-20T04:04:27;10.02;;;4.78;;
23228;SDS011;11783;50.350;6.576;2023-08-20T04:06:53;15.30;;;6.53;;
23228;SDS011;11783;50.350;6.576;2023-08-20T04:09:18;7.53;;;4.60;;
23228;SDS011;11783;50.350;6.576;2023-08-20T04:11:43;6.72;;;4.28;;
23228;SDS011;11783;50.350;6.576;2023-08-20T04:14:09;7.05;;;4.43;;
23228;SDS011;11783;50.350;6.576;2023-08-20T04:16:34;9.63;;;4.32;;
23228;SDS011;11783;50.350;6.576;2023-08-20T04:19:00;8.05;;;4.38;;
23228;SDS011;11783;50.350;6.576;2023-08-20T04:21:25;9.80;;;4.43;;
23228;SDS011;11783;50.350;6.576;2023-08-20T04:23:51;9.05;;;4.38;;
23228;SDS011;11783;50.350;6.576;2023-08-20T04:26:16;8.15;;;4.10;;
23228;SDS011;11783;50.350;6.576;2023-08-20T04:28:41;6.35;;;3.90;;
23228;SDS011;11783;50.350;6.576;2023-08-20T04:31:07;8.77;;;4.30;;
23228;SDS011;11783;50.350;6.576;2023-08-20T04:33:32;7.22;;;4.30;;
23228;SDS011;11783;50.350;6.576;2023-08-20T04:35:57;8.98;;;4.07;;
23228;SDS011;11783;50.350;6.576;2023-08-20T04:38:22;6.57;;;3.67;;
23228;SDS011;11783;50.350;6.576;2023-08-20T04:40:48;6.93;;;4.28;;
23228;SDS011;11783;50.350;6.576;2023-08-20T04:43:14;12.30;;;3.67;;
23228;SDS011;11783;50.350;6.576;2023-08-20T04:45:40;7.80;;;3.80;;
23228;SDS011;11783;50.350;6.576;2023-08-20T04:48:06;8.27;;;4.15;;
23228;SDS011;11783;50.350;6.576;2023-08-20T04:50:31;7.50;;;3.85;;
23228;SDS011;11783;50.350;6.576;2023-08-20T04:52:57;6.07;;;3.78;;
23228;SDS011;11783;50.350;6.576;2023-08-20T04:55:24;7.97;;;3.75;;
23228;SDS011;11783;50.350;6.576;2023-08-20T04:57:50;7.75;;;3.70;;
23228;SDS011;11783;50.350;6.576;2023-08-20T05:00:15;7.63;;;3.60;;
23228;SDS011;11783;50.350;6.576;2023-08-20T05:02:41;6.88;;;3.70;;
23228;SDS011;11783;50.350;6.576;2023-08-20T05:05:06;5.57;;;3.50;;
23228;SDS011;11783;50.350;6.576;2023-08-20T05:07:32;5.63;;;3.40;;
23228;SDS011;11783;50.350;6.576;2023-08-20T05:09:57;4.95;;;3.00;;
23228;SDS011;11783;50.350;6.576;2023-08-20T05:12:22;8.55;;;4.20;;
23228;SDS011;11783;50.350;6.576;2023-08-20T05:14:48;9.57;;;3.70;;
23228;SDS011;11783;50.350;6.576;2023-08-20T05:17:13;9.05;;;3.40;;
23228;SDS011;11783;50.350;6.576;2023-08-20T05:19:38;5.72;;;3.95;;
23228;SDS011;11783;50.350;6.576;2023-08-20T05:22:04;6.05;;;3.80;;
23228;SDS011;11783;50.350;6.576;2023-08-20T05:24:29;8.95;;;4.03;;
23228;SDS011;11783;50.350;6.576;2023-08-20T05:27:07;7.82;;;3.88;;
23228;SDS011;11783;50.350;6.576;2023-08-20T05:29:42;5.95;;;3.58;;
23228;SDS011;11783;50.350;6.576;2023-08-20T05:32:07;6.35;;;3.55;;
23228;SDS011;11783;50.350;6.576;2023-08-20T05:34:32;7.60;;;3.95;;
23228;SDS011;11783;50.350;6.576;2023-08-20T05:36:58;9.05;;;4.18;;
23228;SDS011;11783;50.350;6.576;2023-08-20T05:39:24;5.80;;;3.85;;
23228;SDS011;11783;50.350;6.576;2023-08-20T05:41:51;8.55;;;3.65;;
23228;SDS011;11783;50.350;6.576;2023-08-20T05:44:17;7.25;;;3.63;;
23228;SDS011;11783;50.350;6.576;2023-08-20T05:46:43;7.05;;;3.85;;
23228;SDS011;11783;50.350;6.576;2023-08-20T05:49:08;6.10;;;4.07;;
23228;SDS011;11783;50.350;6.576;2023-08-20T05:51:33;7.53;;;4.00;;
23228;SDS011;11783;50.350;6.576;2023-08-20T05:53:59;8.60;;;4.10;;
23228;SDS011;11783;50.350;6.576;2023-08-20T05:56:24;6.25;;;3.78;;
23228;SDS011;11783;50.350;6.576;2023-08-20T05:58:49;6.13;;;3.70;;
23228;SDS011;11783;50.350;6.576;2023-08-20T06:01:15;6.20;;;3.78;;
23228;SDS011;11783;50.350;6.576;2023-08-20T06:03:40;6.65;;;3.92;;
23228;SDS011;11783;50.350;6.576;2023-08-20T06:06:05;5.93;;;3.58;;
23228;SDS011;11783;50.350;6.576;2023-08-20T06:08:30;7.43;;;3.95;;
23228;SDS011;11783;50.350;6.576;2023-08-20T06:10:56;8.48;;;3.50;;
23228;SDS011;11783;50.350;6.576;2023-08-20T06:13:21;7.55;;;4.10;;
23228;SDS011;11783;50.350;6.576;2023-08-20T06:15:46;6.30;;;3.70;;
23228;SDS011;11783;50.350;6.576;2023-08-20T06:18:12;9.27;;;4.75;;
23228;SDS011;11783;50.350;6.576;2023-08-20T06:20:37;7.50;;;4.35;;
23228;SDS011;11783;50.350;6.576;2023-08-20T06:23:03;7.68;;;4.25;;
23228;SDS011;11783;50.350;6.576;2023-08-20T06:25:28;7.32;;;4.00;;
23228;SDS011;11783;50.350;6.576;2023-08-20T06:27:54;6.25;;;3.70;;
23228;SDS011;11783;50.350;6.576;2023-08-20T06:30:19;6.45;;;3.28;;
23228;SDS011;11783;50.350;6.576;2023-08-20T06:32:44;6.32;;;3.60;;
23228;SDS011;11783;50.350;6.576;2023-08-20T06:35:10;6.15;;;3.72;;
23228;SDS011;11783;50.350;6.576;2023-08-20T06:37:36;5.50;;;3.22;;
23228;SDS011;11783;50.350;6.576;2023-08-20T06:40:01;6.68;;;3.53;;
23228;SDS011;11783;50.350;6.576;2023-08-20T06:42:27;7.20;;;3.70;;
23228;SDS011;11783;50.350;6.576;2023-08-20T06:44:52;11.30;;;4.30;;
23228;SDS011;11783;50.350;6.576;2023-08-20T06:47:17;7.20;;;4.15;;
23228;SDS011;11783;50.350;6.576;2023-08-20T06:49:43;7.45;;;4.03;;
23228;SDS011;11783;50.350;6.576;2023-08-20T06:52:08;9.68;;;4.45;;
23228;SDS011;11783;50.350;6.576;2023-08-20T06:54:34;9.77;;;4.80;;
23228;SDS011;11783;50.350;6.576;2023-08-20T06:56:59;13.68;;;5.03;;
23228;SDS011;11783;50.350;6.576;2023-08-20T06:59:25;11.77;;;5.13;;
23228;SDS011;11783;50.350;6.576;2023-08-20T07:01:50;14.57;;;5.93;;
23228;SDS011;11783;50.350;6.576;2023-08-20T07:04:15;11.32;;;5.80;;
23228;SDS011;11783;50.350;6.576;2023-08-20T07:06:41;10.57;;;5.20;;
23228;SDS011;11783;50.350;6.576;2023-08-20T07:09:06;10.52;;;5.90;;
23228;SDS011;11783;50.350;6.576;2023-08-20T07:11:32;11.25;;;5.57;;
23228;SDS011;11783;50.350;6.576;2023-08-20T07:13:57;10.45;;;6.10;;
23228;SDS011;11783;50.350;6.576;2023-08-20T07:16:22;11.65;;;5.93;;
23228;SDS011;11783;50.350;6.576;2023-08-20T07:18:48;9.82;;;6.15;;
23228;SDS011;11783;50.350;6.576;2023-08-20T07:21:13;12.55;;;6.05;;
23228;SDS011;11783;50.350;6.576;2023-08-20T07:23:38;10.77;;;6.53;;
23228;SDS011;11783;50.350;6.576;2023-08-20T07:26:04;11.80;;;6.57;;
23228;SDS011;11783;50.350;6.576;2023-08-20T07:28:34;13.70;;;7.15;;
23228;SDS011;11783;50.350;6.576;2023-08-20T07:31:18;12.95;;;7.15;;
23228;SDS011;11783;50.350;6.576;2023-08-20T07:33:47;18.67;;;7.10;;
23228;SDS011;11783;50.350;6.576;2023-08-20T07:36:14;15.18;;;7.55;;
23228;SDS011;11783;50.350;6.576;2023-08-20T07:38:40;13.00;;;7.53;;
23228;SDS011;11783;50.350;6.576;2023-08-20T07:41:07;51.17;;;9.20;;
23228;SDS011;11783;50.350;6.576;2023-08-20T07:43:33;27.02;;;8.48;;
23228;SDS011;11783;50.350;6.576;2023-08-20T07:45:59;13.10;;;7.50;;
23228;SDS011;11783;50.350;6.576;2023-08-20T07:48:24;13.10;;;7.45;;
23228;SDS011;11783;50.350;6.576;2023-08-20T07:50:49;22.55;;;7.72;;
23228;SDS011;11783;50.350;6.576;2023-08-20T07:53:14;10.15;;;7.00;;
23228;SDS011;11783;50.350;6.576;2023-08-20T07:55:40;10.57;;;6.13;;
23228;SDS011;11783;50.350;6.576;2023-08-20T07:58:05;11.63;;;5.97;;
23228;SDS011;11783;50.350;6.576;2023-08-20T08:00:31;10.45;;;6.57;;
23228;SDS011;11783;50.350;6.576;2023-08-20T08:02:56;11.43;;;5.82;;
23228;SDS011;11783;50.350;6.576;2023-08-20T08:05:21;10.48;;;6.05;;
23228;SDS011;11783;50.350;6.576;2023-08-20T08:07:47;9.60;;;5.38;;
23228;SDS011;11783;50.350;6.576;2023-08-20T08:10:12;11.75;;;8.10;;
23228;SDS011;11783;50.350;6.576;2023-08-20T08:12:37;10.77;;;6.30;;
23228;SDS011;11783;50.350;6.576;2023-08-20T08:15:03;8.13;;;4.88;;
23228;SDS011;11783;50.350;6.576;2023-08-20T08:17:28;9.88;;;4.78;;
23228;SDS011;11783;50.350;6.576;2023-08-20T08:19:53;12.10;;;4.95;;
23228;SDS011;11783;50.350;6.576;2023-08-20T08:22:20;40.13;;;8.20;;
23228;SDS011;11783;50.350;6.576;2023-08-20T08:24:45;11.98;;;4.88;;
23228;SDS011;11783;50.350;6.576;2023-08-20T08:27:11;10.25;;;5.50;;
23228;SDS011;11783;50.350;6.576;2023-08-20T08:29:36;9.65;;;5.10;;
23228;SDS011;11783;50.350;6.576;2023-08-20T08:32:02;8.20;;;5.07;;
23228;SDS011;11783;50.350;6.576;2023-08-20T08:34:27;9.77;;;5.07;;
23228;SDS011;11783;50.350;6.576;2023-08-20T08:36:52;7.25;;;4.65;;
23228;SDS011;11783;50.350;6.576;2023-08-20T08:39:18;9.55;;;5.22;;
23228;SDS011;11783;50.350;6.576;2023-08-20T08:41:43;7.72;;;4.55;;
23228;SDS011;11783;50.350;6.576;2023-08-20T08:44:11;8.75;;;4.85;;
23228;SDS011;11783;50.350;6.576;2023-08-20T08:46:37;8.65;;;4.90;;
23228;SDS011;11783;50.350;6.576;2023-08-20T08:49:04;7.70;;;4.80;;
23228;SDS011;11783;50.350;6.576;2023-08-20T08:51:30;7.18;;;5.15;;
23228;SDS011;11783;50.350;6.576;2023-08-20T08:53:55;7.85;;;4.43;;
23228;SDS011;11783;50.350;6.576;2023-08-20T08:56:21;7.22;;;4.45;;
23228;SDS011;11783;50.350;6.576;2023-08-20T08:58:47;7.28;;;4.50;;
23228;SDS011;11783;50.350;6.576;2023-08-20T09:01:13;7.10;;;4.38;;
23228;SDS011;11783;50.350;6.576;2023-08-20T09:03:38;6.72;;;4.00;;
23228;SDS011;11783;50.350;6.576;2023-08-20T09:06:07;5.97;;;3.95;;
23228;SDS011;11783;50.350;6.576;2023-08-20T09:08:33;6.25;;;3.90;;
23228;SDS011;11783;50.350;6.576;2023-08-20T09:10:59;8.45;;;4.68;;
23228;SDS011;11783;50.350;6.576;2023-08-20T09:13:33;7.00;;;4.35;;
23228;SDS011;11783;50.350;6.576;2023-08-20T09:16:09;6.97;;;3.95;;
23228;SDS011;11783;50.350;6.576;2023-08-20T09:21:06;6.63;;;3.80;;
23228;SDS011;11783;50.350;6.576;2023-08-20T09:26:01;5.30;;;3.85;;
23228;SDS011;11783;50.350;6.576;2023-08-20T09:28:28;5.63;;;3.38;;
23228;SDS011;11783;50.350;6.576;2023-08-20T09:30:56;5.80;;;3.45;;
23228;SDS011;11783;50.350;6.576;2023-08-20T09:33:23;4.95;;;3.22;;
23228;SDS011;11783;50.350;6.576;2023-08-20T09:35:49;6.03;;;3.80;;
23228;SDS011;11783;50.350;6.576;2023-08-20T09:38:16;6.07;;;3.70;;
23228;SDS011;11783;50.350;6.576;2023-08-20T09:40:45;8.15;;;3.47;;
23228;SDS011;11783;50.350;6.576;2023-08-20T09:43:21;4.80;;;3.40;;
23228;SDS011;11783;50.350;6.576;2023-08-20T09:45:53;6.85;;;3.60;;
23228;SDS011;11783;50.350;6.576;2023-08-20T09:48:20;5.32;;;3.38;;
23228;SDS011;11783;50.350;6.576;2023-08-20T09:50:47;5.57;;;3.60;;
23228;SDS011;11783;50.350;6.576;2023-08-20T09:55:58;6.20;;;3.58;;
23228;SDS011;11783;50.350;6.576;2023-08-20T09:58:48;5.20;;;3.55;;
23228;SDS011;11783;50.350;6.576;2023-08-20T10:01:15;5.28;;;3.90;;
23228;SDS011;11783;50.350;6.576;2023-08-20T10:03:40;5.88;;;3.30;;
23228;SDS011;11783;50.350;6.576;2023-08-20T10:06:07;6.20;;;3.13;;
23228;SDS011;11783;50.350;6.576;2023-08-20T10:08:34;4.28;;;3.00;;
23228;SDS011;11783;50.350;6.576;2023-08-20T10:11:00;5.18;;;2.60;;
23228;SDS011;11783;50.350;6.576;2023-08-20T10:13:25;3.78;;;2.42;;
23228;SDS011;11783;50.350;6.576;2023-08-20T10:15:52;5.25;;;2.50;;
23228;SDS011;11783;50.350;6.576;2023-08-20T10:18:19;4.40;;;2.88;;
23228;SDS011;11783;50.350;6.576;2023-08-20T10:20:45;4.55;;;2.65;;
23228;SDS011;11783;50.350;6.576;2023-08-20T10:23:10;5.60;;;2.40;;
23228;SDS011;11783;50.350;6.576;2023-08-20T10:25:41;4.28;;;2.50;;
23228;SDS011;11783;50.350;6.576;2023-08-20T10:28:26;6.68;;;3.10;;
23228;SDS011;11783;50.350;6.576;2023-08-20T10:33:54;5.88;;;3.58;;
23228;SDS011;11783;50.350;6.576;2023-08-20T10:36:23;5.82;;;3.05;;
23228;SDS011;11783;50.350;6.576;2023-08-20T10:38:54;4.55;;;3.03;;
23228;SDS011;11783;50.350;6.576;2023-08-20T10:41:27;6.28;;;3.03;;
23228;SDS011;11783;50.350;6.576;2023-08-20T10:43:53;4.10;;;2.72;;
23228;SDS011;11783;50.350;6.576;2023-08-20T10:46:23;4.60;;;2.53;;
23228;SDS011;11783;50.350;6.576;2023-08-20T10:48:54;5.50;;;2.85;;
23228;SDS011;11783;50.350;6.576;2023-08-20T10:56:24;5.00;;;2.80;;
23228;SDS011;11783;50.350;6.576;2023-08-20T10:59:06;5.00;;;2.72;;
23228;SDS011;11783;50.350;6.576;2023-08-20T11:01:33;4.72;;;2.72;;
23228;SDS011;11783;50.350;6.576;2023-08-20T11:03:59;5.65;;;3.10;;
23228;SDS011;11783;50.350;6.576;2023-08-20T11:06:30;6.13;;;3.05;;
23228;SDS011;11783;50.350;6.576;2023-08-20T11:08:57;5.05;;;2.90;;
23228;SDS011;11783;50.350;6.576;2023-08-20T11:11:23;4.75;;;2.60;;
23228;SDS011;11783;50.350;6.576;2023-08-20T11:13:48;4.90;;;3.00;;
23228;SDS011;11783;50.350;6.576;2023-08-20T11:16:13;6.38;;;2.78;;
23228;SDS011;11783;50.350;6.576;2023-08-20T11:18:39;4.63;;;2.50;;
23228;SDS011;11783;50.350;6.576;2023-08-20T11:21:04;5.03;;;2.83;;
23228;SDS011;11783;50.350;6.576;2023-08-20T11:23:30;4.13;;;2.75;;
23228;SDS011;11783;50.350;6.576;2023-08-20T11:25:56;4.30;;;2.65;;
23228;SDS011;11783;50.350;6.576;2023-08-20T11:28:22;4.45;;;2.63;;
23228;SDS011;11783;50.350;6.576;2023-08-20T11:30:49;7.55;;;2.90;;
23228;SDS011;11783;50.350;6.576;2023-08-20T11:33:15;7.18;;;3.00;;
23228;SDS011;11783;50.350;6.576;2023-08-20T11:35:41;5.60;;;2.80;;
23228;SDS011;11783;50.350;6.576;2023-08-20T11:38:09;4.10;;;2.50;;
23228;SDS011;11783;50.350;6.576;2023-08-20T11:40:35;4.88;;;2.70;;
23228;SDS011;11783;50.350;6.576;2023-08-20T11:43:01;3.80;;;2.33;;
23228;SDS011;11783;50.350;6.576;2023-08-20T11:45:26;3.90;;;2.40;;
23228;SDS011;11783;50.350;6.576;2023-08-20T11:47:55;3.72;;;2.00;;
23228;SDS011;11783;50.350;6.576;2023-08-20T11:50:23;4.10;;;2.10;;
23228;SDS011;11783;50.350;6.576;2023-08-20T11:52:48;3.47;;;1.90;;
23228;SDS011;11783;50.350;6.576;2023-08-20T11:55:13;3.45;;;1.65;;
23228;SDS011;11783;50.350;6.576;2023-08-20T11:57:39;4.32;;;1.88;;
23228;SDS011;11783;50.350;6.576;2023-08-20T12:00:04;3.17;;;1.73;;
23228;SDS011;11783;50.350;6.576;2023-08-20T12:02:40;6.90;;;2.13;;
23228;SDS011;11783;50.350;6.576;2023-08-20T12:05:06;5.07;;;2.30;;
23228;SDS011;11783;50.350;6.576;2023-08-20T12:07:32;3.70;;;2.20;;
23228;SDS011;11783;50.350;6.576;2023-08-20T12:09:57;3.80;;;1.98;;
23228;SDS011;11783;50.350;6.576;2023-08-20T12:12:22;4.35;;;2.15;;
23228;SDS011;11783;50.350;6.576;2023-08-20T12:14:48;4.50;;;2.50;;
23228;SDS011;11783;50.350;6.576;2023-08-20T12:17:17;4.18;;;2.33;;
23228;SDS011;11783;50.350;6.576;2023-08-20T12:19:43;4.72;;;2.40;;
23228;SDS011;11783;50.350;6.576;2023-08-20T12:22:09;5.10;;;2.35;;
23228;SDS011;11783;50.350;6.576;2023-08-20T12:24:34;6.38;;;2.80;;
23228;SDS011;11783;50.350;6.576;2023-08-20T12:27:00;5.53;;;2.40;;
23228;SDS011;11783;50.350;6.576;2023-08-20T12:29:25;4.90;;;2.60;;
23228;SDS011;11783;50.350;6.576;2023-08-20T12:31:50;6.90;;;2.90;;
23228;SDS011;11783;50.350;6.576;2023-08-20T12:34:16;4.85;;;2.53;;
23228;SDS011;11783;50.350;6.576;2023-08-20T12:36:41;5.80;;;2.65;;
23228;SDS011;11783;50.350;6.576;2023-08-20T12:39:06;4.97;;;2.35;;
23228;SDS011;11783;50.350;6.576;2023-08-20T12:41:32;5.60;;;2.50;;
23228;SDS011;11783;50.350;6.576;2023-08-20T12:43:58;4.88;;;2.70;;
23228;SDS011;11783;50.350;6.576;2023-08-20T12:46:23;4.13;;;2.63;;
23228;SDS011;11783;50.350;6.576;2023-08-20T12:48:49;6.68;;;2.70;;
23228;SDS011;11783;50.350;6.576;2023-08-20T12:51:14;7.93;;;2.80;;
23228;SDS011;11783;50.350;6.576;2023-08-20T12:53:42;6.07;;;2.90;;
23228;SDS011;11783;50.350;6.576;2023-08-20T12:56:07;5.88;;;2.83;;
23228;SDS011;11783;50.350;6.576;2023-08-20T12:58:33;5.65;;;2.90;;
23228;SDS011;11783;50.350;6.576;2023-08-20T13:00:58;4.63;;;2.80;;
23228;SDS011;11783;50.350;6.576;2023-08-20T13:03:24;5.45;;;2.70;;
23228;SDS011;11783;50.350;6.576;2023-08-20T13:05:49;5.40;;;2.65;;
23228;SDS011;11783;50.350;6.576;2023-08-20T13:08:15;4.53;;;2.60;;
23228;SDS011;11783;50.350;6.576;2023-08-20T13:10:41;5.55;;;3.13;;
23228;SDS011;11783;50.350;6.576;2023-08-20T13:13:08;4.18;;;2.40;;
23228;SDS011;11783;50.350;6.576;2023-08-20T13:15:35;5.38;;;2.70;;
23228;SDS011;11783;50.350;6.576;2023-08-20T13:18:01;4.90;;;2.67;;
23228;SDS011;11783;50.350;6.576;2023-08-20T13:20:27;5.68;;;2.83;;
23228;SDS011;11783;50.350;6.576;2023-08-20T13:22:53;4.03;;;2.25;;
23228;SDS011;11783;50.350;6.576;2023-08-20T13:25:18;6.45;;;2.60;;
23228;SDS011;11783;50.350;6.576;2023-08-20T13:27:46;4.72;;;2.40;;
23228;SDS011;11783;50.350;6.576;2023-08-20T13:30:11;5.43;;;2.50;;
23228;SDS011;11783;50.350;6.576;2023-08-20T13:32:38;4.15;;;2.40;;
23228;SDS011;11783;50.350;6.576;2023-08-20T13:35:03;4.07;;;2.15;;
23228;SDS011;11783;50.350;6.576;2023-08-20T13:37:29;6.90;;;2.78;;
23228;SDS011;11783;50.350;6.576;2023-08-20T13:39:58;4.22;;;2.63;;
23228;SDS011;11783;50.350;6.576;2023-08-20T13:42:24;4.50;;;2.42;;
23228;SDS011;11783;50.350;6.576;2023-08-20T13:44:53;4.78;;;2.90;;
23228;SDS011;11783;50.350;6.576;2023-08-20T13:47:18;4.90;;;2.33;;
23228;SDS011;11783;50.350;6.576;2023-08-20T13:49:43;5.50;;;2.60;;
23228;SDS011;11783;50.350;6.576;2023-08-20T13:52:09;3.63;;;2.22;;
23228;SDS011;11783;50.350;6.576;2023-08-20T13:54:35;5.75;;;2.67;;
23228;SDS011;11783;50.350;6.576;2023-08-20T13:57:01;5.38;;;2.60;;
23228;SDS011;11783;50.350;6.576;2023-08-20T13:59:28;7.63;;;2.50;;
23228;SDS011;11783;50.350;6.576;2023-08-20T14:01:53;5.20;;;2.58;;
23228;SDS011;11783;50.350;6.576;2023-08-20T14:04:18;5.63;;;2.63;;
23228;SDS011;11783;50.350;6.576;2023-08-20T14:06:44;6.07;;;2.60;;
23228;SDS011;11783;50.350;6.576;2023-08-20T14:09:09;4.72;;;2.72;;
23228;SDS011;11783;50.350;6.576;2023-08-20T14:11:34;4.85;;;2.47;;
23228;SDS011;11783;50.350;6.576;2023-08-20T14:14:00;5.75;;;2.67;;
23228;SDS011;11783;50.350;6.576;2023-08-20T14:16:25;5.13;;;2.95;;
23228;SDS011;11783;50.350;6.576;2023-08-20T14:18:51;7.25;;;2.80;;
23228;SDS011;11783;50.350;6.576;2023-08-20T14:21:16;5.55;;;2.85;;
23228;SDS011;11783;50.350;6.576;2023-08-20T14:23:41;4.10;;;2.75;;
23228;SDS011;11783;50.350;6.576;2023-08-20T14:26:07;5.75;;;2.40;;
23228;SDS011;11783;50.350;6.576;2023-08-20T14:28:32;4.88;;;2.45;;
23228;SDS011;11783;50.350;6.576;2023-08-20T14:31:01;4.82;;;2.50;;
23228;SDS011;11783;50.350;6.576;2023-08-20T14:33:30;4.45;;;2.50;;
23228;SDS011;11783;50.350;6.576;2023-08-20T14:35:56;5.05;;;2.40;;
23228;SDS011;11783;50.350;6.576;2023-08-20T14:38:21;6.05;;;2.70;;
23228;SDS011;11783;50.350;6.576;2023-08-20T14:40:46;4.50;;;2.80;;
23228;SDS011;11783;50.350;6.576;2023-08-20T14:43:12;4.75;;;2.78;;
23228;SDS011;11783;50.350;6.576;2023-08-20T14:45:37;5.13;;;2.20;;
23228;SDS011;11783;50.350;6.576;2023-08-20T14:48:02;4.10;;;2.38;;
23228;SDS011;11783;50.350;6.576;2023-08-20T14:50:29;5.15;;;2.40;;
23228;SDS011;11783;50.350;6.576;2023-08-20T14:52:54;5.03;;;2.78;;
23228;SDS011;11783;50.350;6.576;2023-08-20T14:55:19;4.20;;;2.38;;
23228;SDS011;11783;50.350;6.576;2023-08-20T14:57:45;6.18;;;2.35;;
23228;SDS011;11783;50.350;6.576;2023-08-20T15:00:11;4.93;;;2.47;;
23228;SDS011;11783;50.350;6.576;2023-08-20T15:02:42;3.60;;;2.30;;
23228;SDS011;11783;50.350;6.576;2023-08-20T15:05:08;4.53;;;2.30;;